createdAt,value
2018-07-14T00:01:26.837Z,7.67
2018-07-14T00:03:54.521Z,7.42
2018-07-14T00:06:22.242Z,7.50
2018-07-14T00:08:49.956Z,7.65
2018-07-14T00:11:17.671Z,7.35
2018-07-14T00:13:45.324Z,8.10
2018-07-14T00:16:13.021Z,7.55
2018-07-14T00:18:40.664Z,7.45
2018-07-14T00:21:08.358Z,7.40
2018-07-14T00:23:36.023Z,6.90
2018-07-14T00:26:03.705Z,7.70
2018-07-14T00:28:32.919Z,7.40
2018-07-14T00:31:00.616Z,7.75
2018-07-14T00:33:28.856Z,7.08
2018-07-14T00:35:56.666Z,6.92
2018-07-14T00:38:24.775Z,6.87
2018-07-14T00:40:52.516Z,7.40
2018-07-14T00:43:20.280Z,6.95
2018-07-14T00:45:47.981Z,7.03
2018-07-14T00:48:15.631Z,7.05
2018-07-14T00:50:43.298Z,7.12
2018-07-14T00:53:10.980Z,7.60
2018-07-14T00:55:38.636Z,6.83
2018-07-14T00:58:06.316Z,7.12
2018-07-14T01:00:33.986Z,7.60
2018-07-14T01:03:01.672Z,6.70
2018-07-14T01:05:29.311Z,7.47
2018-07-14T01:07:57.048Z,7.78
2018-07-14T01:10:24.728Z,7.30
2018-07-14T01:12:52.394Z,7.62
2018-07-14T01:15:20.084Z,6.60
2018-07-14T01:17:47.787Z,6.92
2018-07-14T01:20:15.429Z,7.05
2018-07-14T01:22:43.067Z,8.30
2018-07-14T01:25:10.731Z,7.75
2018-07-14T01:27:38.397Z,7.03
2018-07-14T01:30:06.117Z,8.10
2018-07-14T01:32:33.749Z,7.60
2018-07-14T01:35:01.510Z,8.78
2018-07-14T01:37:29.144Z,7.30
2018-07-14T01:39:56.780Z,6.70
2018-07-14T01:42:24.475Z,7.37
2018-07-14T01:44:52.135Z,6.85
2018-07-14T01:47:19.811Z,7.35
2018-07-14T01:49:47.475Z,7.75
2018-07-14T01:52:15.139Z,6.90
2018-07-14T01:54:42.823Z,7.03
2018-07-14T01:57:10.507Z,7.42
2018-07-14T01:59:38.183Z,7.35
2018-07-14T02:02:05.918Z,7.00
2018-07-14T02:04:33.567Z,7.40
2018-07-14T02:07:01.254Z,7.05
2018-07-14T02:09:28.894Z,6.87
2018-07-14T02:11:56.554Z,6.95
2018-07-14T02:14:24.253Z,7.53
2018-07-14T02:16:51.924Z,7.55
2018-07-14T02:19:19.555Z,6.75
2018-07-14T02:21:47.219Z,6.72
2018-07-14T02:24:14.859Z,6.95
2018-07-14T02:26:42.525Z,7.10
2018-07-14T02:29:10.159Z,7.03
2018-07-14T02:31:37.827Z,6.95
2018-07-14T02:34:05.490Z,7.70
2018-07-14T02:36:33.151Z,7.70
2018-07-14T02:39:00.823Z,7.78
2018-07-14T02:41:28.468Z,7.37
2018-07-14T02:43:56.136Z,6.83
2018-07-14T02:46:23.808Z,7.50
2018-07-14T02:48:51.472Z,7.22
2018-07-14T02:51:19.123Z,7.12
2018-07-14T02:53:46.807Z,6.97
2018-07-14T02:56:14.443Z,7.65
2018-07-14T02:58:42.114Z,7.30
2018-07-14T03:01:09.824Z,7.85
2018-07-14T03:03:37.475Z,8.50
2018-07-14T03:06:05.111Z,8.30
2018-07-14T03:08:32.774Z,8.20
2018-07-14T03:11:00.405Z,7.83
2018-07-14T03:13:28.074Z,7.60
2018-07-14T03:15:55.726Z,8.45
2018-07-14T03:18:23.399Z,7.42
2018-07-14T03:20:51.027Z,8.55
2018-07-14T03:23:18.659Z,7.78
2018-07-14T03:25:46.308Z,8.88
2018-07-14T03:28:13.953Z,7.85
2018-07-14T03:30:41.664Z,8.35
2018-07-14T03:33:09.349Z,8.25
2018-07-14T03:35:36.967Z,8.38
2018-07-14T03:38:04.708Z,8.43
2018-07-14T03:40:32.396Z,9.48
2018-07-14T03:43:00.042Z,8.10
2018-07-14T03:45:27.720Z,7.50
2018-07-14T03:47:55.349Z,7.80
2018-07-14T03:50:23.023Z,8.33
2018-07-14T03:52:50.689Z,7.42
2018-07-14T03:55:18.405Z,8.33
2018-07-14T03:57:46.081Z,8.28
2018-07-14T04:00:13.752Z,8.50
2018-07-14T04:02:41.403Z,8.05
2018-07-14T04:05:09.035Z,7.67
2018-07-14T04:07:36.691Z,8.08
2018-07-14T04:10:04.333Z,8.35
2018-07-14T04:12:32.018Z,8.40
2018-07-14T04:14:59.716Z,7.85
2018-07-14T04:17:27.363Z,8.05
2018-07-14T04:19:55.015Z,8.68
2018-07-14T04:22:22.648Z,8.80
2018-07-14T04:24:50.308Z,8.50
2018-07-14T04:27:17.954Z,8.30
2018-07-14T04:29:45.620Z,8.65
2018-07-14T04:32:13.259Z,9.00
2018-07-14T04:34:40.969Z,8.33
2018-07-14T04:37:08.602Z,8.55
2018-07-14T04:39:36.271Z,8.90
2018-07-14T04:42:03.956Z,8.90
2018-07-14T04:44:31.616Z,10.32
2018-07-14T04:46:59.286Z,8.85
2018-07-14T04:49:26.962Z,9.28
2018-07-14T04:51:54.612Z,8.50
2018-07-14T04:54:22.242Z,8.95
2018-07-14T04:56:49.931Z,8.90
2018-07-14T04:59:17.596Z,8.95
2018-07-14T05:01:45.286Z,10.68
2018-07-14T05:04:12.939Z,9.33
2018-07-14T05:06:40.620Z,10.13
2018-07-14T05:09:08.253Z,9.58
2018-07-14T05:11:35.906Z,9.40
2018-07-14T05:14:03.535Z,10.55
2018-07-14T05:16:31.232Z,9.55
2018-07-14T05:18:58.871Z,9.55
2018-07-14T05:21:26.638Z,9.95
2018-07-14T05:23:54.292Z,9.33
2018-07-14T05:26:21.958Z,9.30
2018-07-14T05:28:49.609Z,9.48
2018-07-14T05:31:17.300Z,9.08
2018-07-14T05:33:44.932Z,10.68
2018-07-14T05:36:12.624Z,10.98
2018-07-14T05:38:40.331Z,9.80
2018-07-14T05:41:08.022Z,10.23
2018-07-14T05:43:35.707Z,10.00
2018-07-14T05:46:03.397Z,10.35
2018-07-14T05:48:31.079Z,11.08
2018-07-14T05:50:58.760Z,9.70
2018-07-14T05:53:26.435Z,9.98
2018-07-14T05:55:54.079Z,10.68
2018-07-14T05:58:21.744Z,10.10
2018-07-14T06:00:49.469Z,10.28
2018-07-14T06:03:17.188Z,11.65
2018-07-14T06:05:44.848Z,10.25
2018-07-14T06:08:12.574Z,10.30
2018-07-14T06:10:40.283Z,11.10
2018-07-14T06:13:07.991Z,10.82
2018-07-14T06:18:35.018Z,10.33
2018-07-14T06:21:02.704Z,10.75
2018-07-14T06:23:30.387Z,10.72
2018-07-14T06:25:58.042Z,10.43
2018-07-14T06:28:25.687Z,9.83
2018-07-14T06:30:53.384Z,10.95
2018-07-14T06:33:21.086Z,9.83
2018-07-14T06:35:48.756Z,9.80
2018-07-14T06:38:16.544Z,10.23
2018-07-14T06:40:44.208Z,11.07
2018-07-14T06:43:11.876Z,10.53
2018-07-14T06:45:39.614Z,9.58
2018-07-14T06:48:07.303Z,9.75
2018-07-14T06:50:35.028Z,10.00
2018-07-14T06:53:02.716Z,9.60
2018-07-14T06:55:30.495Z,9.87
2018-07-14T06:57:58.192Z,10.53
2018-07-14T07:00:25.890Z,9.27
2018-07-14T07:02:53.574Z,9.33
2018-07-14T07:05:21.259Z,10.03
2018-07-14T07:07:48.937Z,11.07
2018-07-14T07:10:16.610Z,9.50
2018-07-14T07:12:44.351Z,9.57
2018-07-14T07:15:12.026Z,10.00
2018-07-14T07:17:39.685Z,10.60
2018-07-14T07:20:07.399Z,10.67
2018-07-14T07:22:35.089Z,10.00
2018-07-14T07:25:02.863Z,9.00
2018-07-14T07:27:30.523Z,10.83
2018-07-14T07:29:58.200Z,10.13
2018-07-14T07:32:25.877Z,9.43
2018-07-14T07:34:53.532Z,9.00
2018-07-14T07:37:22.071Z,9.93
2018-07-14T07:39:50.576Z,9.90
2018-07-14T07:42:21.065Z,10.80
2018-07-14T07:44:49.164Z,10.27
2018-07-14T07:47:17.076Z,9.73
2018-07-14T07:49:45.881Z,11.03
2018-07-14T07:52:13.703Z,9.43
2018-07-14T07:54:42.596Z,10.17
2018-07-14T07:57:10.344Z,10.40
2018-07-14T07:59:39.348Z,10.17
2018-07-14T08:02:08.072Z,9.50
2018-07-14T08:04:35.781Z,9.73
2018-07-14T08:07:03.713Z,9.40
2018-07-14T08:09:32.055Z,11.00
2018-07-14T08:11:59.748Z,9.10
2018-07-14T08:14:28.249Z,8.83
2018-07-14T08:16:55.936Z,9.77
2018-07-14T08:19:23.605Z,9.03
2018-07-14T08:21:52.158Z,9.30
2018-07-14T08:24:19.851Z,9.60
2018-07-14T08:26:47.532Z,9.00
2018-07-14T08:29:16.214Z,9.30
2018-07-14T08:31:45.262Z,9.37
2018-07-14T08:34:15.129Z,8.10
2018-07-14T08:36:42.827Z,8.30
2018-07-14T08:39:11.411Z,8.20
2018-07-14T08:41:39.068Z,8.93
2018-07-14T08:44:06.768Z,8.43
2018-07-14T08:46:34.451Z,9.60
2018-07-14T08:49:02.155Z,9.33
2018-07-14T08:51:29.907Z,7.87
2018-07-14T08:53:57.744Z,9.77
2018-07-14T08:56:25.390Z,7.80
2018-07-14T08:58:53.107Z,9.57
2018-07-14T09:01:20.785Z,9.77
2018-07-14T09:03:48.471Z,9.50
2018-07-14T09:06:16.154Z,8.77
2018-07-14T09:08:43.866Z,10.10
2018-07-14T09:11:11.513Z,9.30
2018-07-14T09:13:39.237Z,9.17
2018-07-14T09:16:06.984Z,8.67
2018-07-14T09:18:34.657Z,9.20
2018-07-14T09:21:02.384Z,8.43
2018-07-14T09:23:30.028Z,8.10
2018-07-14T09:25:57.798Z,7.27
2018-07-14T09:28:25.469Z,8.90
2018-07-14T09:30:53.157Z,7.40
2018-07-14T09:33:20.820Z,6.90
2018-07-14T09:35:48.561Z,6.17
2018-07-14T09:38:16.252Z,6.03
2018-07-14T09:40:43.936Z,5.70
2018-07-14T09:43:11.611Z,5.23
2018-07-14T09:45:39.295Z,6.27
2018-07-14T09:48:07.153Z,5.23
2018-07-14T09:50:34.820Z,6.20
2018-07-14T09:53:02.604Z,6.13
2018-07-14T09:55:30.304Z,5.20
2018-07-14T09:57:57.972Z,5.10
2018-07-14T10:00:31.131Z,5.30
2018-07-14T10:02:58.820Z,6.00
2018-07-14T10:05:26.484Z,5.50
2018-07-14T10:07:54.263Z,5.50
2018-07-14T10:10:21.998Z,4.97
2018-07-14T10:12:49.696Z,5.33
2018-07-14T10:15:17.399Z,5.43
2018-07-14T10:17:45.134Z,4.70
2018-07-14T10:20:12.860Z,5.10
2018-07-14T10:22:40.582Z,4.43
2018-07-14T10:25:08.252Z,4.93
2018-07-14T10:27:35.986Z,5.13
2018-07-14T10:30:03.855Z,4.37
2018-07-14T10:32:31.538Z,4.33
2018-07-14T18:46:15.651Z,7.20
2018-07-14T18:48:43.397Z,6.20
2018-07-14T18:51:11.098Z,6.80
2018-07-14T18:53:38.812Z,6.37
2018-07-14T18:56:06.554Z,5.80
2018-07-14T18:58:34.251Z,5.60
2018-07-14T19:01:02.006Z,5.73
2018-07-14T19:03:29.720Z,6.07
2018-07-14T19:05:57.413Z,5.90
2018-07-14T19:08:30.887Z,6.47
2018-07-14T19:10:58.596Z,6.23
2018-07-14T19:13:26.388Z,5.90
2018-07-14T19:15:54.039Z,6.67
2018-07-14T19:18:21.743Z,6.70
2018-07-14T19:20:49.472Z,6.30
2018-07-14T19:23:17.051Z,6.00
2018-07-14T19:25:45.915Z,6.63
2018-07-14T19:28:14.157Z,6.47
2018-07-14T19:30:41.760Z,6.73
2018-07-14T19:33:09.481Z,6.80
2018-07-14T19:35:43.931Z,6.47
2018-07-14T19:38:18.461Z,6.80
2018-07-14T19:40:47.548Z,6.90
2018-07-14T19:43:15.317Z,7.83
2018-07-14T19:45:43.652Z,7.00
2018-07-14T19:48:11.504Z,7.20
2018-07-14T19:50:39.200Z,7.10
2018-07-14T19:53:06.871Z,6.77
2018-07-14T19:55:35.889Z,7.87
2018-07-14T19:58:03.856Z,6.60
2018-07-14T20:00:31.610Z,6.70
2018-07-14T20:02:59.343Z,6.90
2018-07-14T20:05:27.096Z,7.87
2018-07-14T20:07:54.809Z,6.70
2018-07-14T20:10:22.528Z,8.10
2018-07-14T20:12:50.283Z,7.63
2018-07-14T20:15:18.011Z,8.00
2018-07-14T20:17:45.735Z,7.53
2018-07-14T20:20:13.444Z,7.40
2018-07-14T20:22:41.193Z,8.93
2018-07-14T20:25:08.936Z,7.80
2018-07-14T20:27:37.729Z,7.70
2018-07-14T20:30:06.514Z,8.17
2018-07-14T20:32:38.185Z,8.00
2018-07-14T20:35:11.036Z,8.60
2018-07-14T20:37:38.816Z,7.30
2018-07-14T20:40:06.505Z,7.80
2018-07-14T20:42:34.249Z,8.20
2018-07-14T20:45:02.091Z,7.90
2018-07-14T20:47:29.859Z,7.77
2018-07-14T20:49:57.485Z,8.23
2018-07-14T20:52:25.256Z,7.93
2018-07-14T20:54:52.932Z,8.33
2018-07-14T20:57:20.692Z,7.00
2018-07-14T20:59:48.358Z,8.13
2018-07-14T21:02:16.085Z,8.67
2018-07-14T21:04:43.768Z,9.30
2018-07-14T21:07:11.499Z,8.93
2018-07-14T21:09:39.190Z,8.43
2018-07-14T21:12:06.959Z,10.13
2018-07-14T21:14:34.660Z,11.67
2018-07-14T21:17:02.396Z,10.43
2018-07-14T21:19:30.104Z,9.93
2018-07-14T21:21:57.834Z,9.50
2018-07-14T21:24:25.536Z,10.83
2018-07-14T21:26:53.272Z,9.60
2018-07-14T21:29:20.991Z,9.63
2018-07-14T21:31:48.696Z,9.37
2018-07-14T21:34:16.414Z,10.30
2018-07-14T21:36:44.068Z,9.87
2018-07-14T21:39:11.792Z,10.07
2018-07-14T21:41:39.460Z,9.93
2018-07-14T21:44:07.197Z,9.53
2018-07-14T21:46:34.973Z,9.67
2018-07-14T21:49:02.621Z,10.00
2018-07-14T21:51:30.364Z,10.60
2018-07-14T21:53:58.038Z,10.17
2018-07-14T21:56:25.823Z,10.60
2018-07-14T21:58:53.530Z,9.77
2018-07-14T22:01:26.729Z,9.60
2018-07-14T22:03:54.438Z,10.20
2018-07-14T22:06:22.164Z,9.00
2018-07-14T22:08:49.800Z,9.73
2018-07-14T22:11:17.489Z,9.50
2018-07-14T22:13:45.184Z,10.40
2018-07-14T22:16:12.951Z,9.77
2018-07-14T22:18:40.612Z,10.07
2018-07-14T22:21:08.320Z,9.40
2018-07-14T22:23:36.012Z,9.93
2018-07-14T22:26:03.800Z,9.73
2018-07-14T22:28:31.517Z,9.40
2018-07-14T22:30:59.240Z,9.87
2018-07-14T22:33:26.951Z,10.03
2018-07-14T22:35:54.614Z,10.03
2018-07-14T22:38:22.319Z,8.40
2018-07-14T22:40:50.033Z,11.00
2018-07-14T22:43:17.715Z,10.80
2018-07-14T22:45:45.374Z,10.40
2018-07-14T22:48:13.088Z,10.67
2018-07-14T22:50:40.728Z,11.10
2018-07-14T22:53:08.441Z,10.60
2018-07-14T22:55:36.078Z,10.53
2018-07-14T22:58:03.800Z,11.30
2018-07-14T23:00:31.470Z,11.13
2018-07-14T23:02:59.167Z,10.57
2018-07-14T23:05:26.864Z,11.10
2018-07-14T23:07:54.548Z,11.40
2018-07-14T23:10:22.270Z,10.70
2018-07-14T23:12:50.040Z,10.15
2018-07-14T23:15:17.723Z,11.22
2018-07-14T23:17:45.395Z,12.40
2018-07-14T23:20:13.144Z,11.43
2018-07-14T23:22:40.804Z,11.87
2018-07-14T23:25:08.517Z,11.20
2018-07-14T23:27:36.340Z,10.75
2018-07-14T23:30:04.230Z,10.55
2018-07-14T23:32:31.886Z,10.97
2018-07-14T23:34:59.591Z,12.47
2018-07-14T23:37:27.305Z,10.73
2018-07-14T23:39:54.989Z,10.83
2018-07-14T23:42:22.672Z,10.88
2018-07-14T23:44:50.367Z,11.45
2018-07-14T23:47:18.035Z,10.80
2018-07-14T23:49:45.713Z,12.05
2018-07-14T23:52:13.372Z,11.08
2018-07-14T23:54:41.055Z,11.93
2018-07-14T23:57:08.763Z,12.10
2018-07-14T23:59:36.421Z,11.60
